createdAt,value
2017-10-26T00:00:33.169Z,18.40
2017-10-26T00:03:00.588Z,16.60
2017-10-26T00:05:28.028Z,18.13
2017-10-26T00:07:55.465Z,15.70
2017-10-26T00:10:22.896Z,16.43
2017-10-26T00:12:50.329Z,15.63
2017-10-26T00:15:17.758Z,18.00
2017-10-26T00:17:45.192Z,16.43
2017-10-26T00:20:12.612Z,16.90
2017-10-26T00:22:40.032Z,15.03
2017-10-26T00:25:07.473Z,17.33
2017-10-26T00:27:34.896Z,18.90
2017-10-26T00:30:02.321Z,18.10
2017-10-26T00:32:29.764Z,19.27
2017-10-26T00:34:57.186Z,19.80
2017-10-26T00:37:24.604Z,20.67
2017-10-26T00:39:52.040Z,19.00
2017-10-26T00:42:19.478Z,19.60
2017-10-26T00:44:46.896Z,19.77
2017-10-26T00:47:14.341Z,16.73
2017-10-26T00:49:41.773Z,20.27
2017-10-26T00:52:09.192Z,20.30
2017-10-26T00:54:36.634Z,18.97
2017-10-26T00:57:04.068Z,20.70
2017-10-26T00:59:31.507Z,24.53
2017-10-26T01:01:58.952Z,21.90
2017-10-26T01:04:26.381Z,22.43
2017-10-26T01:06:53.804Z,21.50
2017-10-26T01:09:21.249Z,23.00
2017-10-26T01:11:48.665Z,23.77
2017-10-26T01:14:16.088Z,23.10
2017-10-26T01:16:43.525Z,25.47
2017-10-26T01:19:10.960Z,26.87
2017-10-26T01:21:38.380Z,25.43
2017-10-26T01:24:05.817Z,26.10
2017-10-26T01:26:33.240Z,25.67
2017-10-26T01:29:00.670Z,27.17
2017-10-26T01:31:28.108Z,27.77
2017-10-26T01:33:55.529Z,28.60
2017-10-26T01:36:22.953Z,26.40
2017-10-26T01:38:50.389Z,27.57
2017-10-26T01:41:17.808Z,27.80
2017-10-26T01:43:45.228Z,27.23
2017-10-26T01:46:12.675Z,29.87
2017-10-26T01:48:40.093Z,32.40
2017-10-26T01:51:07.526Z,28.97
2017-10-26T01:53:34.974Z,33.33
2017-10-26T01:56:02.402Z,32.20
2017-10-26T01:58:29.829Z,30.63
2017-10-26T02:00:57.268Z,30.37
2017-10-26T02:03:24.690Z,31.47
2017-10-26T02:05:52.111Z,32.17
2017-10-26T02:08:19.557Z,29.33
2017-10-26T02:10:46.981Z,30.23
2017-10-26T02:13:14.437Z,30.77
2017-10-26T02:15:41.874Z,31.37
2017-10-26T02:18:09.288Z,31.67
2017-10-26T02:20:36.716Z,33.57
2017-10-26T02:23:04.160Z,31.97
2017-10-26T02:25:31.590Z,31.17
2017-10-26T02:27:59.012Z,29.10
2017-10-26T02:30:38.242Z,31.23
2017-10-26T02:33:05.674Z,30.37
2017-10-26T02:35:33.088Z,27.70
2017-10-26T02:38:00.533Z,27.53
2017-10-26T02:40:27.959Z,26.90
2017-10-26T02:42:55.374Z,25.53
2017-10-26T02:45:22.818Z,27.60
2017-10-26T02:47:50.248Z,22.53
2017-10-26T02:50:17.682Z,26.17
2017-10-26T02:52:45.125Z,24.27
2017-10-26T02:55:12.544Z,23.27
2017-10-26T02:57:39.965Z,24.90
2017-10-26T03:00:07.406Z,26.17
2017-10-26T03:02:34.828Z,24.40
2017-10-26T03:05:02.249Z,26.90
2017-10-26T03:07:29.685Z,26.80
2017-10-26T03:09:57.106Z,25.47
2017-10-26T03:12:24.533Z,26.17
2017-10-26T03:14:52.001Z,25.73
2017-10-26T03:17:19.420Z,28.00
2017-10-26T03:19:46.844Z,26.73
2017-10-26T03:22:14.286Z,28.17
2017-10-26T03:24:41.705Z,27.17
2017-10-26T03:27:09.129Z,25.10
2017-10-26T03:29:36.586Z,28.20
2017-10-26T03:32:04.018Z,28.70
2017-10-26T03:34:31.442Z,27.53
2017-10-26T03:36:58.879Z,27.50
2017-10-26T03:39:26.310Z,29.20
2017-10-26T03:41:53.725Z,27.33
2017-10-26T03:44:21.164Z,27.73
2017-10-26T03:46:48.597Z,26.57
2017-10-26T03:49:16.025Z,26.20
2017-10-26T03:51:43.460Z,27.30
2017-10-26T03:54:10.884Z,28.27
2017-10-26T03:56:38.314Z,25.10
2017-10-26T03:59:05.756Z,26.60
2017-10-26T04:01:33.180Z,27.80
2017-10-26T04:04:00.604Z,28.70
2017-10-26T04:06:28.041Z,26.97
2017-10-26T04:08:55.467Z,25.30
2017-10-26T04:11:22.898Z,24.20
2017-10-26T04:13:50.336Z,27.87
2017-10-26T04:16:17.765Z,28.23
2017-10-26T04:18:45.201Z,26.70
2017-10-26T04:21:12.641Z,27.30
2017-10-26T04:23:40.065Z,26.20
2017-10-26T04:26:07.509Z,26.80
2017-10-26T04:28:34.928Z,25.10
2017-10-26T04:31:02.348Z,25.67
2017-10-26T04:33:29.791Z,25.40
2017-10-26T04:35:57.212Z,26.80
2017-10-26T04:38:24.641Z,25.80
2017-10-26T04:40:52.088Z,25.90
2017-10-26T04:43:19.508Z,24.10
2017-10-26T04:45:46.933Z,26.93
2017-10-26T04:48:14.384Z,26.53
2017-10-26T04:50:41.808Z,26.83
2017-10-26T04:53:09.244Z,28.13
2017-10-26T04:55:36.689Z,27.80
2017-10-26T04:58:04.110Z,27.13
2017-10-26T05:00:31.529Z,27.70
2017-10-26T05:02:58.977Z,29.40
2017-10-26T05:05:26.396Z,28.73
2017-10-26T05:07:53.837Z,28.43
2017-10-26T05:10:21.277Z,27.30
2017-10-26T05:12:48.708Z,27.43
2017-10-26T05:15:16.139Z,28.23
2017-10-26T05:17:43.580Z,28.07
2017-10-26T05:20:11.005Z,27.17
2017-10-26T05:22:38.424Z,27.97
2017-10-26T05:25:05.868Z,27.73
2017-10-26T05:27:33.304Z,30.23
2017-10-26T05:30:04.490Z,29.50
2017-10-26T05:32:34.274Z,29.67
2017-10-26T05:35:01.693Z,30.40
2017-10-26T05:37:29.117Z,31.17
2017-10-26T05:39:56.565Z,30.73
2017-10-26T05:42:23.988Z,30.27
2017-10-26T05:44:51.416Z,31.43
2017-10-26T05:47:18.857Z,30.23
2017-10-26T05:49:46.280Z,30.03
2017-10-26T05:52:13.696Z,31.73
2017-10-26T05:54:41.141Z,29.63
2017-10-26T05:57:08.560Z,29.87
2017-10-26T05:59:35.984Z,27.97
2017-10-26T06:02:03.421Z,27.43
2017-10-26T06:04:30.840Z,25.23
2017-10-26T06:06:58.260Z,26.10
2017-10-26T06:09:25.700Z,26.13
2017-10-26T06:11:53.134Z,26.40
2017-10-26T06:14:20.548Z,24.97
2017-10-26T06:16:47.988Z,26.60
2017-10-26T06:19:15.408Z,27.03
2017-10-26T06:21:42.839Z,27.90
2017-10-26T06:24:10.281Z,27.17
2017-10-26T06:26:37.705Z,28.00
2017-10-26T06:29:05.124Z,27.60
2017-10-26T06:31:32.576Z,28.10
2017-10-26T06:33:59.995Z,28.43
2017-10-26T06:36:27.437Z,28.37
2017-10-26T06:38:54.868Z,29.20
2017-10-26T06:41:22.295Z,27.93
2017-10-26T06:43:49.740Z,27.87
2017-10-26T06:46:17.221Z,29.77
2017-10-26T06:48:44.647Z,25.33
2017-10-26T06:51:12.085Z,27.63
2017-10-26T06:53:39.504Z,27.27
2017-10-26T06:56:06.920Z,28.77
2017-10-26T06:58:34.360Z,27.40
2017-10-26T07:01:01.788Z,29.43
2017-10-26T07:03:29.204Z,25.47
2017-10-26T07:05:56.641Z,25.00
2017-10-26T07:08:24.063Z,25.67
2017-10-26T07:10:51.503Z,25.20
2017-10-26T07:13:18.931Z,24.50
2017-10-26T07:15:46.353Z,25.00
2017-10-26T07:18:13.792Z,24.97
2017-10-26T07:20:41.220Z,22.47
2017-10-26T07:23:08.636Z,22.60
2017-10-26T07:25:36.076Z,23.83
2017-10-26T07:28:03.506Z,21.37
2017-10-26T07:30:30.928Z,20.40
2017-10-26T07:32:58.364Z,21.67
2017-10-26T07:35:25.793Z,21.20
2017-10-26T07:37:53.211Z,21.47
2017-10-26T07:40:21.488Z,21.43
2017-10-26T07:42:48.918Z,22.07
2017-10-26T07:45:16.341Z,23.90
2017-10-26T07:47:43.749Z,22.87
2017-10-26T07:50:11.214Z,23.20
2017-10-26T07:52:38.642Z,23.33
2017-10-26T07:55:06.080Z,23.00
2017-10-26T07:57:33.500Z,22.10
2017-10-26T08:00:00.930Z,22.03
2017-10-26T08:02:28.364Z,22.17
2017-10-26T08:04:55.788Z,21.87
2017-10-26T08:07:23.204Z,22.30
2017-10-26T08:09:50.653Z,19.60
2017-10-26T08:12:18.072Z,17.60
2017-10-26T08:14:45.492Z,15.63
2017-10-26T08:17:12.932Z,16.27
2017-10-26T08:19:40.358Z,16.23
2017-10-26T08:22:07.776Z,16.60
2017-10-26T08:24:35.222Z,14.70
2017-10-26T08:27:02.651Z,15.27
2017-10-26T08:29:30.064Z,16.10
2017-10-26T08:31:57.509Z,15.47
2017-10-26T08:34:24.936Z,14.80
2017-10-26T08:36:52.360Z,16.67
2017-10-26T08:39:19.805Z,15.50
2017-10-26T08:41:47.220Z,16.03
2017-10-26T08:44:14.649Z,15.17
2017-10-26T08:46:42.097Z,16.63
2017-10-26T08:49:09.553Z,15.00
2017-10-26T08:51:36.968Z,15.10
2017-10-26T08:54:04.413Z,14.77
2017-10-26T08:56:31.828Z,14.90
2017-10-26T08:58:59.253Z,20.20
2017-10-26T09:01:26.692Z,20.97
2017-10-26T09:03:54.108Z,19.97
2017-10-26T09:06:21.533Z,22.70
2017-10-26T09:08:48.974Z,19.67
2017-10-26T09:11:16.397Z,21.63
2017-10-26T09:13:43.820Z,22.30
2017-10-26T09:16:11.261Z,21.30
2017-10-26T09:18:38.688Z,20.10
2017-10-26T09:21:06.121Z,20.90
2017-10-26T09:23:33.555Z,20.83
2017-10-26T09:26:00.977Z,22.97
2017-10-26T09:28:28.423Z,21.40
2017-10-26T09:30:55.840Z,20.40
2017-10-26T09:33:28.909Z,19.03
2017-10-26T09:35:56.354Z,21.00
2017-10-26T09:38:23.771Z,19.40
2017-10-26T09:40:51.213Z,20.17
2017-10-26T09:43:18.665Z,18.60
2017-10-26T09:45:46.108Z,19.57
2017-10-26T09:48:13.571Z,18.83
2017-10-26T09:50:40.973Z,20.67
2017-10-26T09:53:08.416Z,20.37
2017-10-26T09:55:35.837Z,19.87
2017-10-26T09:58:03.257Z,18.20
2017-10-26T10:00:30.692Z,20.20
2017-10-26T10:02:58.121Z,19.73
2017-10-26T10:05:25.540Z,21.10
2017-10-26T10:07:52.976Z,21.40
2017-10-26T10:10:20.400Z,20.70
2017-10-26T10:12:47.816Z,21.93
2017-10-26T10:15:15.259Z,22.40
2017-10-26T10:17:42.667Z,21.30
2017-10-26T10:20:10.088Z,21.70
2017-10-26T10:22:37.529Z,23.07
2017-10-26T10:25:04.954Z,22.30
2017-10-26T10:27:32.372Z,21.53
2017-10-26T10:29:59.808Z,22.27
2017-10-26T10:32:27.242Z,21.67
2017-10-26T10:34:54.676Z,21.20
2017-10-26T10:37:22.112Z,21.83
2017-10-26T10:39:49.536Z,20.63
2017-10-26T10:42:16.964Z,21.13
2017-10-26T10:44:44.384Z,19.60
2017-10-26T10:47:11.804Z,20.77
2017-10-26T10:49:39.241Z,17.40
2017-10-26T10:52:06.664Z,16.70
2017-10-26T10:54:34.089Z,15.10
2017-10-26T10:57:01.524Z,13.57
2017-10-26T10:59:34.310Z,13.17
2017-10-26T11:02:01.753Z,13.37
2017-10-26T11:04:29.143Z,14.17
2017-10-26T11:06:56.601Z,14.63
2017-10-26T11:09:24.040Z,14.03
2017-10-26T11:11:51.466Z,12.53
2017-10-26T11:14:18.879Z,12.70
2017-10-26T11:16:46.323Z,13.00
2017-10-26T11:19:13.740Z,13.87
2017-10-26T11:21:41.171Z,12.47
2017-10-26T11:24:08.604Z,13.07
2017-10-26T11:26:36.025Z,14.07
2017-10-26T11:29:03.456Z,12.63
2017-10-26T11:31:30.893Z,11.57
2017-10-26T11:33:58.313Z,11.77
2017-10-26T11:36:25.737Z,12.50
2017-10-26T11:38:53.171Z,13.37
2017-10-26T11:41:20.597Z,12.00
2017-10-26T11:43:48.025Z,12.33
2017-10-26T11:46:15.464Z,13.23
2017-10-26T11:48:42.883Z,12.80
2017-10-26T11:51:10.467Z,12.20
2017-10-26T11:53:37.897Z,13.27
2017-10-26T11:56:05.312Z,12.73
2017-10-26T11:58:32.756Z,13.00
2017-10-26T12:01:00.177Z,13.40
2017-10-26T12:03:27.595Z,12.03
2017-10-26T12:05:55.028Z,13.00
2017-10-26T12:08:22.465Z,13.77
2017-10-26T12:10:49.888Z,13.07
2017-10-26T12:13:17.352Z,11.47
2017-10-26T12:15:44.773Z,11.83
2017-10-26T12:18:12.192Z,12.97
2017-10-26T12:20:39.636Z,12.30
2017-10-26T12:23:07.053Z,11.90
2017-10-26T12:25:34.481Z,13.30
2017-10-26T12:28:01.925Z,12.23
2017-10-26T12:30:29.350Z,12.23
2017-10-26T12:32:56.763Z,12.57
2017-10-26T12:35:24.201Z,12.63
2017-10-26T12:37:51.621Z,10.50
2017-10-26T12:40:19.041Z,11.17
2017-10-26T12:42:46.480Z,10.03
2017-10-26T12:45:13.904Z,10.80
2017-10-26T12:47:41.337Z,11.17
2017-10-26T12:50:08.771Z,10.53
2017-10-26T12:52:36.189Z,11.30
2017-10-26T12:55:03.648Z,11.60
2017-10-26T12:57:31.090Z,12.20
2017-10-26T12:59:58.520Z,10.80
2017-10-26T13:02:25.944Z,12.10
2017-10-26T13:04:53.376Z,12.03
2017-10-26T13:07:20.800Z,12.10
2017-10-26T13:09:48.225Z,13.50
2017-10-26T13:12:15.667Z,11.20
2017-10-26T13:14:43.091Z,12.50
2017-10-26T13:17:10.509Z,12.50
2017-10-26T13:19:37.944Z,12.00
2017-10-26T13:22:05.378Z,12.97
2017-10-26T13:24:32.804Z,12.70
2017-10-26T13:27:00.237Z,11.07
2017-10-26T13:29:27.660Z,12.63
2017-10-26T13:31:55.081Z,14.70
2017-10-26T13:34:22.519Z,15.20
2017-10-26T13:36:49.949Z,15.20
2017-10-26T13:39:17.371Z,15.73
2017-10-26T13:41:44.810Z,14.97
2017-10-26T13:44:12.229Z,14.57
2017-10-26T13:46:39.649Z,15.00
2017-10-26T13:49:07.083Z,16.30
2017-10-26T13:51:34.504Z,17.03
2017-10-26T13:54:01.920Z,17.40
2017-10-26T13:56:29.365Z,17.40
2017-10-26T13:58:56.788Z,15.67
2017-10-26T14:01:24.204Z,17.33
2017-10-26T14:03:51.641Z,16.70
2017-10-26T14:06:19.060Z,16.70
2017-10-26T14:08:46.484Z,15.77
2017-10-26T14:11:13.922Z,16.20
2017-10-26T14:16:39.712Z,18.37
2017-10-26T14:19:07.138Z,17.57
2017-10-26T14:21:34.568Z,16.20
2017-10-26T14:24:02.000Z,17.27
2017-10-26T14:26:29.424Z,18.07
2017-10-26T14:28:56.844Z,16.30
2017-10-26T14:31:24.292Z,18.40
2017-10-26T14:33:51.713Z,18.13
2017-10-26T14:36:19.144Z,17.77
2017-10-26T14:38:46.577Z,17.80
2017-10-26T14:41:13.996Z,19.47
2017-10-26T14:43:41.436Z,16.40
2017-10-26T14:46:08.858Z,17.00
2017-10-26T14:48:36.284Z,14.50
2017-10-26T14:51:03.725Z,14.93
2017-10-26T14:53:31.144Z,15.03
2017-10-26T14:55:58.577Z,14.80
2017-10-26T14:58:26.023Z,14.53
2017-10-26T15:00:53.440Z,14.93
2017-10-26T15:03:20.885Z,14.57
2017-10-26T15:05:48.304Z,17.00
2017-10-26T15:08:15.720Z,16.23
2017-10-26T15:10:43.164Z,29.20
2017-10-26T15:13:10.590Z,16.60
2017-10-26T15:15:38.005Z,16.77
2017-10-26T15:18:05.468Z,30.03
2017-10-26T15:20:32.897Z,15.27
2017-10-26T15:23:00.504Z,14.70
2017-10-26T15:25:27.940Z,15.03
2017-10-26T15:27:55.451Z,13.27
2017-10-26T15:30:22.888Z,13.30
2017-10-26T15:32:50.329Z,12.60
2017-10-26T15:35:17.757Z,11.30
2017-10-26T15:37:45.827Z,10.20
2017-10-26T15:40:13.255Z,11.00
2017-10-26T15:42:40.673Z,11.43
2017-10-26T15:45:08.109Z,10.90
2017-10-26T15:47:35.544Z,10.67
2017-10-26T15:50:02.966Z,11.50
2017-10-26T15:52:30.451Z,10.43
2017-10-26T15:54:57.873Z,15.30
2017-10-26T15:57:25.298Z,10.80
2017-10-26T15:59:52.732Z,11.40
2017-10-26T16:02:20.161Z,12.00
2017-10-26T16:04:47.609Z,12.10
2017-10-26T16:07:15.044Z,10.80
2017-10-26T16:09:42.477Z,11.73
2017-10-26T16:12:09.912Z,10.70
2017-10-26T16:14:37.333Z,10.60
2017-10-26T16:17:04.776Z,11.70
2017-10-26T16:19:32.197Z,11.20
2017-10-26T16:21:59.620Z,12.30
2017-10-26T16:24:27.061Z,11.50
2017-10-26T16:26:54.494Z,12.27
2017-10-26T16:29:21.913Z,15.40
2017-10-26T16:31:49.353Z,17.50
2017-10-26T16:34:16.834Z,15.67
2017-10-26T16:36:44.245Z,16.07
2017-10-26T16:39:11.686Z,20.97
2017-10-26T16:41:39.108Z,15.27
2017-10-26T16:44:06.524Z,19.20
2017-10-26T16:46:33.964Z,20.07
2017-10-26T16:49:01.398Z,22.60
2017-10-26T16:51:28.817Z,20.93
2017-10-26T16:53:56.261Z,20.10
2017-10-26T16:56:23.684Z,20.53
2017-10-26T16:58:51.110Z,26.03
2017-10-26T17:01:18.569Z,26.07
2017-10-26T17:03:47.426Z,27.70
2017-10-26T17:06:14.858Z,26.37
2017-10-26T17:08:42.329Z,27.47
2017-10-26T17:11:09.748Z,26.53
2017-10-26T17:13:37.173Z,26.40
2017-10-26T17:16:04.620Z,25.20
2017-10-26T17:18:32.054Z,23.87
2017-10-26T17:20:59.481Z,24.83
2017-10-26T17:23:27.027Z,25.07
2017-10-26T17:25:54.508Z,24.57
2017-10-26T17:28:21.924Z,22.30
2017-10-26T17:30:49.377Z,21.97
2017-10-26T17:33:16.800Z,20.70
2017-10-26T17:35:44.214Z,20.53
2017-10-26T17:38:11.672Z,20.47
2017-10-26T17:40:40.208Z,19.10
2017-10-26T17:43:07.637Z,20.90
2017-10-26T17:45:35.075Z,19.73
2017-10-26T17:48:02.577Z,20.00
2017-10-26T17:50:30.008Z,19.43
2017-10-26T17:52:58.497Z,20.30
2017-10-26T17:55:25.960Z,18.77
2017-10-26T17:57:53.396Z,19.10
2017-10-26T18:00:20.845Z,21.60
2017-10-26T18:02:48.280Z,21.67
2017-10-26T18:05:15.723Z,21.77
2017-10-26T18:07:43.145Z,22.37
2017-10-26T18:10:10.584Z,24.87
2017-10-26T18:12:38.005Z,24.83
2017-10-26T18:15:05.566Z,25.17
2017-10-26T18:17:33.022Z,24.60
2017-10-26T18:20:00.445Z,26.93
2017-10-26T18:22:27.888Z,26.70
2017-10-26T18:24:55.357Z,25.87
2017-10-26T18:27:22.781Z,24.17
2017-10-26T18:29:50.311Z,28.17
2017-10-26T18:32:17.761Z,27.93
2017-10-26T18:34:48.209Z,28.13
2017-10-26T18:37:17.706Z,28.20
2017-10-26T18:39:45.184Z,30.60
2017-10-26T18:42:12.611Z,32.40
2017-10-26T18:44:40.129Z,29.53
2017-10-26T18:47:07.714Z,28.60
2017-10-26T18:49:35.178Z,28.10
2017-10-26T18:52:03.010Z,28.23
2017-10-26T18:54:31.013Z,29.10
2017-10-26T18:56:58.726Z,27.13
2017-10-26T18:59:26.670Z,25.63
2017-10-26T19:01:54.287Z,24.60
2017-10-26T19:04:21.741Z,24.10
2017-10-26T19:06:49.432Z,25.13
2017-10-26T19:09:17.132Z,24.93
2017-10-26T19:11:45.551Z,24.40
2017-10-26T19:14:14.088Z,25.00
2017-10-26T19:16:42.393Z,25.37
2017-10-26T19:19:09.945Z,25.93
2017-10-26T19:21:37.415Z,25.27
2017-10-26T19:24:04.865Z,25.80
2017-10-26T19:26:38.491Z,34.73
2017-10-26T19:29:06.885Z,33.57
2017-10-26T19:31:36.832Z,33.87
2017-10-26T19:34:04.574Z,32.70
2017-10-26T19:36:32.195Z,33.87
2017-10-26T19:38:59.954Z,33.53
2017-10-26T19:41:27.433Z,31.73
2017-10-26T19:44:09.851Z,33.27
2017-10-26T19:46:37.492Z,35.13
2017-10-26T19:49:05.123Z,32.97
2017-10-26T19:51:32.713Z,34.57
2017-10-26T19:54:02.841Z,32.10
2017-10-26T19:56:30.282Z,31.90
2017-10-26T19:58:57.762Z,32.60
2017-10-26T20:01:25.243Z,34.63
2017-10-26T20:03:52.731Z,35.93
2017-10-26T20:06:20.204Z,34.13
2017-10-26T20:08:47.642Z,33.33
2017-10-26T20:11:15.083Z,32.30
2017-10-26T20:13:42.513Z,34.00
2017-10-26T20:16:09.957Z,30.00
2017-10-26T20:18:37.381Z,28.27
2017-10-26T20:21:04.801Z,29.40
2017-10-26T20:23:32.241Z,26.60
2017-10-26T20:25:59.693Z,26.67
2017-10-26T20:28:27.121Z,25.93
2017-10-26T20:30:55.168Z,27.13
2017-10-26T20:33:22.599Z,27.20
2017-10-26T20:35:50.015Z,26.03
2017-10-26T20:38:17.470Z,29.03
2017-10-26T20:40:44.896Z,28.63
2017-10-26T20:43:12.319Z,27.57
2017-10-26T20:45:39.755Z,27.27
2017-10-26T20:48:07.179Z,31.07
2017-10-26T20:50:40.360Z,28.10
2017-10-26T20:53:13.311Z,27.80
2017-10-26T20:55:46.444Z,30.20
2017-10-26T20:58:19.432Z,26.03
2017-10-26T21:00:52.577Z,25.10
2017-10-26T21:03:25.653Z,27.17
2017-10-26T21:05:58.815Z,25.93
2017-10-26T21:08:31.933Z,25.77
2017-10-26T21:11:04.988Z,23.17
2017-10-26T21:13:38.042Z,21.50
2017-10-26T21:16:05.476Z,23.13
2017-10-26T21:18:32.901Z,23.77
2017-10-26T21:21:00.328Z,23.20
2017-10-26T21:23:27.800Z,22.90
2017-10-26T21:25:55.225Z,23.70
2017-10-26T21:28:22.648Z,22.13
2017-10-26T21:30:50.089Z,23.30
2017-10-26T21:33:17.508Z,23.90
2017-10-26T21:35:44.923Z,22.40
2017-10-26T21:38:12.364Z,23.40
2017-10-26T21:40:39.784Z,21.20
2017-10-26T21:43:07.202Z,22.90
2017-10-26T21:45:34.645Z,19.93
2017-10-26T21:48:02.069Z,20.13
2017-10-26T21:50:29.501Z,20.73
2017-10-26T21:52:56.945Z,21.53
2017-10-26T21:55:24.369Z,21.70
2017-10-26T21:57:51.789Z,20.70
2017-10-26T22:00:19.234Z,20.60
2017-10-26T22:02:46.662Z,21.27
2017-10-26T22:05:14.893Z,20.17
2017-10-26T22:07:42.325Z,18.77
2017-10-26T22:10:09.754Z,20.40
2017-10-26T22:12:37.173Z,19.20
2017-10-26T22:15:04.655Z,19.40
2017-10-26T22:17:32.073Z,20.00
2017-10-26T22:19:59.497Z,19.00
2017-10-26T22:22:26.933Z,19.83
2017-10-26T22:24:54.373Z,19.60
2017-10-26T22:27:21.788Z,22.63
2017-10-26T22:29:49.229Z,21.57
2017-10-26T22:32:16.661Z,21.73
2017-10-26T22:34:44.090Z,20.50
2017-10-26T22:37:11.529Z,22.00
2017-10-26T22:39:38.960Z,20.87
2017-10-26T22:42:06.384Z,24.63
2017-10-26T22:44:33.822Z,23.20
2017-10-26T22:47:01.240Z,23.63
2017-10-26T22:49:28.665Z,20.77
2017-10-26T22:51:56.105Z,24.03
2017-10-26T22:54:23.537Z,22.23
2017-10-26T22:56:50.952Z,22.43
2017-10-26T22:59:18.392Z,23.70
2017-10-26T23:01:45.817Z,23.10
2017-10-26T23:04:13.240Z,24.67
2017-10-26T23:06:40.680Z,24.17
2017-10-26T23:09:08.173Z,23.50
2017-10-26T23:11:35.601Z,22.20
2017-10-26T23:14:03.038Z,23.30
2017-10-26T23:16:30.460Z,22.50
2017-10-26T23:18:57.880Z,24.60
2017-10-26T23:21:25.320Z,23.90
2017-10-26T23:23:52.749Z,22.50
2017-10-26T23:26:20.442Z,22.60
2017-10-26T23:28:47.881Z,24.87
2017-10-26T23:31:15.308Z,22.50
2017-10-26T23:33:42.768Z,22.70
2017-10-26T23:36:10.197Z,21.77
2017-10-26T23:38:37.621Z,26.37
2017-10-26T23:41:05.065Z,25.67
2017-10-26T23:43:32.501Z,34.60
2017-10-26T23:45:59.925Z,34.70
2017-10-26T23:48:27.359Z,34.07
2017-10-26T23:50:54.781Z,37.43
2017-10-26T23:53:22.201Z,35.20
2017-10-26T23:55:49.632Z,32.53
2017-10-26T23:58:17.057Z,35.10
